sensor_id;sensor_type;location;lat;lon;timestamp;P1;durP1;ratioP1;P2;durP2;ratioP2
12224;SDS011;6175;50.956;11.064;2023-07-20T00:01:32;2.95;;;2.75;;
12224;SDS011;6175;50.956;11.064;2023-07-20T00:03:59;3.40;;;3.10;;
12224;SDS011;6175;50.956;11.064;2023-07-20T00:06:26;4.53;;;4.05;;
12224;SDS011;6175;50.956;11.064;2023-07-20T00:08:53;4.60;;;4.18;;
12224;SDS011;6175;50.956;11.064;2023-07-20T00:11:25;3.63;;;3.33;;
12224;SDS011;6175;50.956;11.064;2023-07-20T00:13:53;4.07;;;3.65;;
12224;SDS011;6175;50.956;11.064;2023-07-20T00:16:20;4.40;;;4.00;;
12224;SDS011;6175;50.956;11.064;2023-07-20T00:18:47;3.50;;;3.25;;
12224;SDS011;6175;50.956;11.064;2023-07-20T00:21:14;3.88;;;3.58;;
12224;SDS011;6175;50.956;11.064;2023-07-20T00:23:41;3.33;;;3.08;;
12224;SDS011;6175;50.956;11.064;2023-07-20T00:26:08;4.03;;;3.67;;
12224;SDS011;6175;50.956;11.064;2023-07-20T00:28:37;4.68;;;3.55;;
12224;SDS011;6175;50.956;11.064;2023-07-20T00:31:04;3.80;;;3.50;;
12224;SDS011;6175;50.956;11.064;2023-07-20T00:33:31;5.00;;;3.88;;
12224;SDS011;6175;50.956;11.064;2023-07-20T00:35:58;3.70;;;3.40;;
12224;SDS011;6175;50.956;11.064;2023-07-20T00:38:26;4.53;;;3.95;;
12224;SDS011;6175;50.956;11.064;2023-07-20T00:40:53;4.63;;;4.13;;
12224;SDS011;6175;50.956;11.064;2023-07-20T00:43:20;3.90;;;3.60;;
12224;SDS011;6175;50.956;11.064;2023-07-20T00:45:48;4.05;;;3.65;;
12224;SDS011;6175;50.956;11.064;2023-07-20T00:48:16;6.43;;;4.68;;
12224;SDS011;6175;50.956;11.064;2023-07-20T00:50:43;5.22;;;4.72;;
12224;SDS011;6175;50.956;11.064;2023-07-20T00:53:11;4.82;;;4.38;;
12224;SDS011;6175;50.956;11.064;2023-07-20T00:55:38;5.55;;;5.05;;
12224;SDS011;6175;50.956;11.064;2023-07-20T00:58:05;5.43;;;4.85;;
12224;SDS011;6175;50.956;11.064;2023-07-20T01:00:32;4.53;;;4.03;;
12224;SDS011;6175;50.956;11.064;2023-07-20T01:03:01;5.28;;;4.75;;
12224;SDS011;6175;50.956;11.064;2023-07-20T01:05:31;4.65;;;4.25;;
12224;SDS011;6175;50.956;11.064;2023-07-20T01:08:01;4.68;;;4.28;;
12224;SDS011;6175;50.956;11.064;2023-07-20T01:10:31;4.82;;;4.35;;
12224;SDS011;6175;50.956;11.064;2023-07-20T01:13:00;5.53;;;4.22;;
12224;SDS011;6175;50.956;11.064;2023-07-20T01:15:28;4.90;;;4.45;;
12224;SDS011;6175;50.956;11.064;2023-07-20T01:17:55;3.95;;;3.65;;
12224;SDS011;6175;50.956;11.064;2023-07-20T01:20:24;4.00;;;3.63;;
12224;SDS011;6175;50.956;11.064;2023-07-20T01:23:03;4.47;;;3.90;;
12224;SDS011;6175;50.956;11.064;2023-07-20T01:25:37;4.05;;;3.75;;
12224;SDS011;6175;50.956;11.064;2023-07-20T01:31:15;5.63;;;4.90;;
12224;SDS011;6175;50.956;11.064;2023-07-20T01:33:53;5.55;;;4.07;;
12224;SDS011;6175;50.956;11.064;2023-07-20T01:36:21;4.47;;;4.07;;
12224;SDS011;6175;50.956;11.064;2023-07-20T01:38:49;4.50;;;4.10;;
12224;SDS011;6175;50.956;11.064;2023-07-20T01:41:16;4.03;;;3.72;;
12224;SDS011;6175;50.956;11.064;2023-07-20T01:43:43;3.83;;;3.53;;
12224;SDS011;6175;50.956;11.064;2023-07-20T01:46:11;4.40;;;4.00;;
12224;SDS011;6175;50.956;11.064;2023-07-20T01:48:39;3.83;;;3.42;;
12224;SDS011;6175;50.956;11.064;2023-07-20T01:51:06;4.00;;;3.70;;
12224;SDS011;6175;50.956;11.064;2023-07-20T01:53:33;4.03;;;3.72;;
12224;SDS011;6175;50.956;11.064;2023-07-20T01:56:00;4.85;;;4.45;;
12224;SDS011;6175;50.956;11.064;2023-07-20T01:58:27;5.32;;;4.22;;
12224;SDS011;6175;50.956;11.064;2023-07-20T02:00:54;3.85;;;3.55;;
12224;SDS011;6175;50.956;11.064;2023-07-20T02:03:21;4.05;;;3.70;;
12224;SDS011;6175;50.956;11.064;2023-07-20T02:05:53;4.35;;;3.85;;
12224;SDS011;6175;50.956;11.064;2023-07-20T02:08:22;3.95;;;3.47;;
12224;SDS011;6175;50.956;11.064;2023-07-20T02:10:49;5.53;;;4.47;;
12224;SDS011;6175;50.956;11.064;2023-07-20T02:13:16;4.03;;;3.65;;
12224;SDS011;6175;50.956;11.064;2023-07-20T02:15:43;5.03;;;3.22;;
12224;SDS011;6175;50.956;11.064;2023-07-20T02:18:12;3.70;;;3.40;;
12224;SDS011;6175;50.956;11.064;2023-07-20T02:20:40;3.50;;;3.20;;
12224;SDS011;6175;50.956;11.064;2023-07-20T02:23:09;3.75;;;3.45;;
12224;SDS011;6175;50.956;11.064;2023-07-20T02:25:36;5.00;;;3.90;;
12224;SDS011;6175;50.956;11.064;2023-07-20T02:28:03;3.90;;;3.60;;
12224;SDS011;6175;50.956;11.064;2023-07-20T02:30:31;4.20;;;3.83;;
12224;SDS011;6175;50.956;11.064;2023-07-20T02:32:57;4.45;;;4.05;;
12224;SDS011;6175;50.956;11.064;2023-07-20T02:35:25;4.32;;;3.42;;
12224;SDS011;6175;50.956;11.064;2023-07-20T02:37:52;4.53;;;3.95;;
12224;SDS011;6175;50.956;11.064;2023-07-20T02:40:21;4.20;;;3.83;;
12224;SDS011;6175;50.956;11.064;2023-07-20T02:42:48;4.53;;;4.10;;
12224;SDS011;6175;50.956;11.064;2023-07-20T02:45:16;5.32;;;4.78;;
12224;SDS011;6175;50.956;11.064;2023-07-20T02:47:42;4.43;;;4.00;;
12224;SDS011;6175;50.956;11.064;2023-07-20T02:50:10;5.57;;;4.75;;
12224;SDS011;6175;50.956;11.064;2023-07-20T02:52:38;4.85;;;4.43;;
12224;SDS011;6175;50.956;11.064;2023-07-20T02:55:06;5.28;;;4.85;;
12224;SDS011;6175;50.956;11.064;2023-07-20T02:57:34;4.93;;;3.92;;
12224;SDS011;6175;50.956;11.064;2023-07-20T03:00:02;5.65;;;4.30;;
12224;SDS011;6175;50.956;11.064;2023-07-20T03:02:30;4.82;;;4.18;;
12224;SDS011;6175;50.956;11.064;2023-07-20T03:04:58;3.88;;;3.58;;
12224;SDS011;6175;50.956;11.064;2023-07-20T03:07:26;6.85;;;4.20;;
12224;SDS011;6175;50.956;11.064;2023-07-20T03:09:54;7.15;;;4.47;;
12224;SDS011;6175;50.956;11.064;2023-07-20T03:12:21;6.90;;;4.53;;
12224;SDS011;6175;50.956;11.064;2023-07-20T03:14:51;4.35;;;4.03;;
12224;SDS011;6175;50.956;11.064;2023-07-20T03:17:19;4.35;;;3.90;;
12224;SDS011;6175;50.956;11.064;2023-07-20T03:19:46;6.10;;;4.93;;
12224;SDS011;6175;50.956;11.064;2023-07-20T03:22:13;4.95;;;4.50;;
12224;SDS011;6175;50.956;11.064;2023-07-20T03:24:41;6.25;;;4.53;;
12224;SDS011;6175;50.956;11.064;2023-07-20T03:27:08;4.18;;;3.78;;
12224;SDS011;6175;50.956;11.064;2023-07-20T03:29:35;4.35;;;3.63;;
12224;SDS011;6175;50.956;11.064;2023-07-20T03:32:04;7.72;;;4.60;;
12224;SDS011;6175;50.956;11.064;2023-07-20T03:34:31;3.95;;;3.63;;
12224;SDS011;6175;50.956;11.064;2023-07-20T03:36:58;3.88;;;3.50;;
12224;SDS011;6175;50.956;11.064;2023-07-20T03:39:26;6.03;;;4.30;;
12224;SDS011;6175;50.956;11.064;2023-07-20T03:41:53;4.70;;;3.75;;
12224;SDS011;6175;50.956;11.064;2023-07-20T03:44:20;4.18;;;3.72;;
12224;SDS011;6175;50.956;11.064;2023-07-20T03:46:47;3.75;;;3.45;;
12224;SDS011;6175;50.956;11.064;2023-07-20T03:49:15;7.00;;;4.55;;
12224;SDS011;6175;50.956;11.064;2023-07-20T03:51:43;4.05;;;3.65;;
12224;SDS011;6175;50.956;11.064;2023-07-20T03:54:09;4.53;;;4.13;;
12224;SDS011;6175;50.956;11.064;2023-07-20T03:56:36;5.18;;;3.85;;
12224;SDS011;6175;50.956;11.064;2023-07-20T03:59:04;4.32;;;3.92;;
12224;SDS011;6175;50.956;11.064;2023-07-20T04:01:31;5.47;;;3.83;;
12224;SDS011;6175;50.956;11.064;2023-07-20T04:04:01;4.47;;;3.60;;
12224;SDS011;6175;50.956;11.064;2023-07-20T04:06:30;4.32;;;3.45;;
12224;SDS011;6175;50.956;11.064;2023-07-20T04:08:57;3.53;;;3.22;;
12224;SDS011;6175;50.956;11.064;2023-07-20T04:11:24;4.40;;;3.78;;
12224;SDS011;6175;50.956;11.064;2023-07-20T04:13:51;3.60;;;3.28;;
12224;SDS011;6175;50.956;11.064;2023-07-20T04:16:19;5.05;;;3.97;;
12224;SDS011;6175;50.956;11.064;2023-07-20T04:18:46;4.25;;;3.60;;
12224;SDS011;6175;50.956;11.064;2023-07-20T04:21:13;4.55;;;4.15;;
12224;SDS011;6175;50.956;11.064;2023-07-20T04:23:42;4.43;;;3.30;;
12224;SDS011;6175;50.956;11.064;2023-07-20T04:26:10;4.28;;;3.70;;
12224;SDS011;6175;50.956;11.064;2023-07-20T04:28:37;3.92;;;3.17;;
12224;SDS011;6175;50.956;11.064;2023-07-20T04:31:10;4.20;;;3.80;;
12224;SDS011;6175;50.956;11.064;2023-07-20T04:33:37;4.80;;;3.45;;
12224;SDS011;6175;50.956;11.064;2023-07-20T04:36:05;3.50;;;3.20;;
12224;SDS011;6175;50.956;11.064;2023-07-20T04:38:32;3.10;;;2.80;;
12224;SDS011;6175;50.956;11.064;2023-07-20T04:41:00;3.97;;;3.45;;
12224;SDS011;6175;50.956;11.064;2023-07-20T04:43:29;3.70;;;3.38;;
12224;SDS011;6175;50.956;11.064;2023-07-20T04:45:56;5.68;;;3.30;;
12224;SDS011;6175;50.956;11.064;2023-07-20T04:48:23;4.13;;;3.72;;
12224;SDS011;6175;50.956;11.064;2023-07-20T04:50:50;7.07;;;3.83;;
12224;SDS011;6175;50.956;11.064;2023-07-20T04:53:17;4.95;;;3.70;;
12224;SDS011;6175;50.956;11.064;2023-07-20T04:55:48;3.25;;;2.95;;
12224;SDS011;6175;50.956;11.064;2023-07-20T04:58:21;5.93;;;3.95;;
12224;SDS011;6175;50.956;11.064;2023-07-20T05:00:49;3.50;;;3.13;;
12224;SDS011;6175;50.956;11.064;2023-07-20T05:03:16;5.97;;;4.05;;
12224;SDS011;6175;50.956;11.064;2023-07-20T05:05:43;5.22;;;3.15;;
12224;SDS011;6175;50.956;11.064;2023-07-20T05:08:10;4.70;;;3.72;;
12224;SDS011;6175;50.956;11.064;2023-07-20T05:10:37;5.18;;;3.58;;
12224;SDS011;6175;50.956;11.064;2023-07-20T05:13:05;5.20;;;3.55;;
12224;SDS011;6175;50.956;11.064;2023-07-20T05:15:33;3.60;;;3.10;;
12224;SDS011;6175;50.956;11.064;2023-07-20T05:18:01;4.00;;;3.60;;
12224;SDS011;6175;50.956;11.064;2023-07-20T05:20:28;4.15;;;3.33;;
12224;SDS011;6175;50.956;11.064;2023-07-20T05:22:56;6.35;;;3.85;;
12224;SDS011;6175;50.956;11.064;2023-07-20T05:25:23;6.38;;;3.55;;
12224;SDS011;6175;50.956;11.064;2023-07-20T05:27:51;5.45;;;3.67;;
12224;SDS011;6175;50.956;11.064;2023-07-20T05:30:20;5.63;;;4.30;;
12224;SDS011;6175;50.956;11.064;2023-07-20T05:32:48;3.85;;;3.42;;
12224;SDS011;6175;50.956;11.064;2023-07-20T05:35:18;6.68;;;3.40;;
12224;SDS011;6175;50.956;11.064;2023-07-20T05:37:46;5.80;;;3.70;;
12224;SDS011;6175;50.956;11.064;2023-07-20T05:40:13;5.57;;;3.60;;
12224;SDS011;6175;50.956;11.064;2023-07-20T05:42:43;4.93;;;3.50;;
12224;SDS011;6175;50.956;11.064;2023-07-20T05:45:11;3.90;;;3.10;;
12224;SDS011;6175;50.956;11.064;2023-07-20T05:47:38;5.53;;;3.67;;
12224;SDS011;6175;50.956;11.064;2023-07-20T05:50:07;6.28;;;3.88;;
12224;SDS011;6175;50.956;11.064;2023-07-20T05:52:35;6.30;;;3.97;;
12224;SDS011;6175;50.956;11.064;2023-07-20T05:55:02;5.00;;;4.00;;
12224;SDS011;6175;50.956;11.064;2023-07-20T05:57:30;5.68;;;3.88;;
12224;SDS011;6175;50.956;11.064;2023-07-20T05:59:57;5.82;;;4.40;;
12224;SDS011;6175;50.956;11.064;2023-07-20T06:02:24;6.57;;;4.13;;
12224;SDS011;6175;50.956;11.064;2023-07-20T06:04:51;5.38;;;3.78;;
12224;SDS011;6175;50.956;11.064;2023-07-20T06:07:21;4.10;;;3.45;;
12224;SDS011;6175;50.956;11.064;2023-07-20T06:09:48;9.35;;;4.35;;
12224;SDS011;6175;50.956;11.064;2023-07-20T06:12:15;4.72;;;3.40;;
12224;SDS011;6175;50.956;11.064;2023-07-20T06:14:42;7.97;;;3.95;;
12224;SDS011;6175;50.956;11.064;2023-07-20T06:17:09;4.78;;;3.33;;
12224;SDS011;6175;50.956;11.064;2023-07-20T06:19:37;5.53;;;3.67;;
12224;SDS011;6175;50.956;11.064;2023-07-20T06:22:04;6.05;;;3.92;;
12224;SDS011;6175;50.956;11.064;2023-07-20T06:24:33;4.95;;;4.22;;
12224;SDS011;6175;50.956;11.064;2023-07-20T06:27:00;5.65;;;3.70;;
12224;SDS011;6175;50.956;11.064;2023-07-20T06:29:27;7.28;;;3.67;;
12224;SDS011;6175;50.956;11.064;2023-07-20T06:31:54;4.95;;;3.58;;
12224;SDS011;6175;50.956;11.064;2023-07-20T06:34:22;6.32;;;3.80;;
12224;SDS011;6175;50.956;11.064;2023-07-20T06:36:49;4.40;;;4.00;;
12224;SDS011;6175;50.956;11.064;2023-07-20T06:39:16;6.90;;;4.45;;
12224;SDS011;6175;50.956;11.064;2023-07-20T06:41:45;5.15;;;3.75;;
12224;SDS011;6175;50.956;11.064;2023-07-20T06:44:11;5.05;;;3.72;;
12224;SDS011;6175;50.956;11.064;2023-07-20T06:46:39;4.22;;;3.80;;
12224;SDS011;6175;50.956;11.064;2023-07-20T06:49:07;5.22;;;4.07;;
12224;SDS011;6175;50.956;11.064;2023-07-20T06:51:34;6.13;;;4.28;;
12224;SDS011;6175;50.956;11.064;2023-07-20T06:54:01;3.88;;;3.20;;
12224;SDS011;6175;50.956;11.064;2023-07-20T06:56:29;7.13;;;3.75;;
12224;SDS011;6175;50.956;11.064;2023-07-20T06:58:58;5.78;;;3.88;;
12224;SDS011;6175;50.956;11.064;2023-07-20T07:01:27;5.45;;;3.42;;
12224;SDS011;6175;50.956;11.064;2023-07-20T07:03:54;6.35;;;3.58;;
12224;SDS011;6175;50.956;11.064;2023-07-20T07:06:22;4.85;;;3.17;;
12224;SDS011;6175;50.956;11.064;2023-07-20T07:08:49;4.50;;;3.35;;
12224;SDS011;6175;50.956;11.064;2023-07-20T07:11:16;5.32;;;3.17;;
12224;SDS011;6175;50.956;11.064;2023-07-20T07:13:43;3.28;;;2.70;;
12224;SDS011;6175;50.956;11.064;2023-07-20T07:16:13;4.15;;;2.60;;
12224;SDS011;6175;50.956;11.064;2023-07-20T07:18:43;3.85;;;2.78;;
12224;SDS011;6175;50.956;11.064;2023-07-20T07:21:10;3.92;;;2.90;;
12224;SDS011;6175;50.956;11.064;2023-07-20T07:23:38;3.70;;;2.40;;
12224;SDS011;6175;50.956;11.064;2023-07-20T07:26:05;4.15;;;3.28;;
12224;SDS011;6175;50.956;11.064;2023-07-20T07:28:32;3.30;;;2.80;;
12224;SDS011;6175;50.956;11.064;2023-07-20T07:30:59;3.25;;;2.95;;
12224;SDS011;6175;50.956;11.064;2023-07-20T07:33:28;4.13;;;2.90;;
12224;SDS011;6175;50.956;11.064;2023-07-20T07:35:55;4.28;;;2.90;;
12224;SDS011;6175;50.956;11.064;2023-07-20T07:38:23;3.28;;;2.67;;
12224;SDS011;6175;50.956;11.064;2023-07-20T07:40:50;2.78;;;2.53;;
12224;SDS011;6175;50.956;11.064;2023-07-20T07:43:17;5.38;;;2.70;;
12224;SDS011;6175;50.956;11.064;2023-07-20T07:45:44;3.08;;;2.65;;
12224;SDS011;6175;50.956;11.064;2023-07-20T07:48:12;4.32;;;2.35;;
12224;SDS011;6175;50.956;11.064;2023-07-20T07:50:40;2.25;;;2.05;;
12224;SDS011;6175;50.956;11.064;2023-07-20T07:53:08;3.10;;;2.50;;
12224;SDS011;6175;50.956;11.064;2023-07-20T07:55:35;3.00;;;2.53;;
12224;SDS011;6175;50.956;11.064;2023-07-20T07:58:02;4.05;;;2.88;;
12224;SDS011;6175;50.956;11.064;2023-07-20T08:00:30;3.22;;;2.92;;
12224;SDS011;6175;50.956;11.064;2023-07-20T08:02:57;3.28;;;2.90;;
12224;SDS011;6175;50.956;11.064;2023-07-20T08:05:24;5.10;;;3.40;;
12224;SDS011;6175;50.956;11.064;2023-07-20T08:07:53;5.78;;;3.20;;
12224;SDS011;6175;50.956;11.064;2023-07-20T08:10:21;5.50;;;3.17;;
12224;SDS011;6175;50.956;11.064;2023-07-20T08:12:48;3.28;;;2.97;;
12224;SDS011;6175;50.956;11.064;2023-07-20T08:15:16;5.18;;;3.17;;
12224;SDS011;6175;50.956;11.064;2023-07-20T08:17:43;3.17;;;2.92;;
12224;SDS011;6175;50.956;11.064;2023-07-20T08:20:12;2.83;;;2.55;;
12224;SDS011;6175;50.956;11.064;2023-07-20T08:22:39;2.88;;;2.67;;
12224;SDS011;6175;50.956;11.064;2023-07-20T08:25:08;3.15;;;2.83;;
12224;SDS011;6175;50.956;11.064;2023-07-20T08:27:35;4.53;;;2.70;;
12224;SDS011;6175;50.956;11.064;2023-07-20T08:30:03;6.75;;;3.08;;
12224;SDS011;6175;50.956;11.064;2023-07-20T08:32:30;3.35;;;2.85;;
12224;SDS011;6175;50.956;11.064;2023-07-20T08:34:58;3.97;;;2.80;;
12224;SDS011;6175;50.956;11.064;2023-07-20T08:37:25;3.67;;;2.80;;
12224;SDS011;6175;50.956;11.064;2023-07-20T08:39:52;3.40;;;3.10;;
12224;SDS011;6175;50.956;11.064;2023-07-20T08:42:21;3.60;;;3.20;;
12224;SDS011;6175;50.956;11.064;2023-07-20T08:44:49;3.70;;;3.40;;
12224;SDS011;6175;50.956;11.064;2023-07-20T08:47:16;4.60;;;2.97;;
12224;SDS011;6175;50.956;11.064;2023-07-20T08:49:44;3.58;;;3.00;;
12224;SDS011;6175;50.956;11.064;2023-07-20T08:52:14;3.05;;;2.85;;
12224;SDS011;6175;50.956;11.064;2023-07-20T08:54:41;3.70;;;3.38;;
12224;SDS011;6175;50.956;11.064;2023-07-20T08:57:08;3.60;;;2.95;;
12224;SDS011;6175;50.956;11.064;2023-07-20T08:59:40;3.45;;;3.00;;
12224;SDS011;6175;50.956;11.064;2023-07-20T09:02:09;3.55;;;3.13;;
12224;SDS011;6175;50.956;11.064;2023-07-20T09:04:43;4.47;;;2.75;;
12224;SDS011;6175;50.956;11.064;2023-07-20T09:07:12;3.13;;;2.83;;
12224;SDS011;6175;50.956;11.064;2023-07-20T09:09:40;3.05;;;2.80;;
12224;SDS011;6175;50.956;11.064;2023-07-20T09:12:12;3.05;;;2.75;;
12224;SDS011;6175;50.956;11.064;2023-07-20T09:14:43;2.90;;;2.70;;
12224;SDS011;6175;50.956;11.064;2023-07-20T09:17:12;4.65;;;3.08;;
12224;SDS011;6175;50.956;11.064;2023-07-20T09:19:45;3.17;;;2.88;;
12224;SDS011;6175;50.956;11.064;2023-07-20T09:22:12;3.10;;;2.78;;
12224;SDS011;6175;50.956;11.064;2023-07-20T09:24:39;3.22;;;2.85;;
12224;SDS011;6175;50.956;11.064;2023-07-20T09:27:06;2.85;;;2.65;;
12224;SDS011;6175;50.956;11.064;2023-07-20T09:29:34;4.40;;;2.42;;
12224;SDS011;6175;50.956;11.064;2023-07-20T09:32:03;2.67;;;2.47;;
12224;SDS011;6175;50.956;11.064;2023-07-20T09:34:30;3.10;;;2.75;;
12224;SDS011;6175;50.956;11.064;2023-07-20T09:36:58;2.38;;;2.17;;
12224;SDS011;6175;50.956;11.064;2023-07-20T09:39:25;4.25;;;2.60;;
12224;SDS011;6175;50.956;11.064;2023-07-20T09:41:52;3.60;;;2.70;;
12224;SDS011;6175;50.956;11.064;2023-07-20T09:44:19;6.82;;;3.88;;
12224;SDS011;6175;50.956;11.064;2023-07-20T09:46:47;5.20;;;3.10;;
12224;SDS011;6175;50.956;11.064;2023-07-20T09:49:17;3.75;;;3.45;;
12224;SDS011;6175;50.956;11.064;2023-07-20T09:51:44;3.72;;;3.42;;
12224;SDS011;6175;50.956;11.064;2023-07-20T09:54:13;4.97;;;3.63;;
12224;SDS011;6175;50.956;11.064;2023-07-20T09:56:40;4.05;;;3.55;;
12224;SDS011;6175;50.956;11.064;2023-07-20T09:59:07;3.90;;;3.50;;
12224;SDS011;6175;50.956;11.064;2023-07-20T10:01:34;5.75;;;3.45;;
12224;SDS011;6175;50.956;11.064;2023-07-20T10:04:03;3.65;;;3.35;;
12224;SDS011;6175;50.956;11.064;2023-07-20T10:06:32;4.43;;;4.00;;
12224;SDS011;6175;50.956;11.064;2023-07-20T10:09:00;4.60;;;4.20;;
12224;SDS011;6175;50.956;11.064;2023-07-20T10:11:29;4.75;;;4.35;;
12224;SDS011;6175;50.956;11.064;2023-07-20T10:13:58;6.03;;;4.70;;
12224;SDS011;6175;50.956;11.064;2023-07-20T10:16:26;6.03;;;4.57;;
12224;SDS011;6175;50.956;11.064;2023-07-20T10:18:59;5.30;;;4.80;;
12224;SDS011;6175;50.956;11.064;2023-07-20T10:21:26;4.95;;;4.55;;
12224;SDS011;6175;50.956;11.064;2023-07-20T10:23:56;5.25;;;4.75;;
12224;SDS011;6175;50.956;11.064;2023-07-20T10:26:24;5.38;;;4.88;;
12224;SDS011;6175;50.956;11.064;2023-07-20T10:28:51;5.03;;;4.53;;
12224;SDS011;6175;50.956;11.064;2023-07-20T10:31:19;4.88;;;3.92;;
12224;SDS011;6175;50.956;11.064;2023-07-20T10:33:47;3.92;;;3.47;;
12224;SDS011;6175;50.956;11.064;2023-07-20T10:36:15;3.42;;;3.13;;
12224;SDS011;6175;50.956;11.064;2023-07-20T10:38:44;3.20;;;2.97;;
12224;SDS011;6175;50.956;11.064;2023-07-20T10:41:21;2.65;;;2.45;;
12224;SDS011;6175;50.956;11.064;2023-07-20T10:43:51;4.10;;;2.13;;
12224;SDS011;6175;50.956;11.064;2023-07-20T10:46:33;1.67;;;1.58;;
12224;SDS011;6175;50.956;11.064;2023-07-20T10:49:01;2.78;;;2.47;;
12224;SDS011;6175;50.956;11.064;2023-07-20T10:51:29;2.25;;;2.05;;
12224;SDS011;6175;50.956;11.064;2023-07-20T10:53:56;2.50;;;2.30;;
12224;SDS011;6175;50.956;11.064;2023-07-20T10:56:27;1.90;;;1.80;;
12224;SDS011;6175;50.956;11.064;2023-07-20T10:58:57;2.17;;;1.70;;
12224;SDS011;6175;50.956;11.064;2023-07-20T11:01:27;2.28;;;2.03;;
12224;SDS011;6175;50.956;11.064;2023-07-20T11:03:57;2.40;;;2.20;;
12224;SDS011;6175;50.956;11.064;2023-07-20T11:06:31;2.03;;;1.85;;
12224;SDS011;6175;50.956;11.064;2023-07-20T11:09:03;2.45;;;2.22;;
12224;SDS011;6175;50.956;11.064;2023-07-20T11:11:34;2.40;;;2.20;;
12224;SDS011;6175;50.956;11.064;2023-07-20T11:14:02;1.52;;;1.42;;
12224;SDS011;6175;50.956;11.064;2023-07-20T11:16:33;2.45;;;1.50;;
12224;SDS011;6175;50.956;11.064;2023-07-20T11:19:00;2.30;;;1.90;;
12224;SDS011;6175;50.956;11.064;2023-07-20T11:21:28;3.15;;;2.00;;
12224;SDS011;6175;50.956;11.064;2023-07-20T11:23:55;1.90;;;1.80;;
12224;SDS011;6175;50.956;11.064;2023-07-20T11:26:22;2.72;;;1.67;;
12224;SDS011;6175;50.956;11.064;2023-07-20T11:28:51;1.70;;;1.60;;
12224;SDS011;6175;50.956;11.064;2023-07-20T11:31:18;2.35;;;1.80;;
12224;SDS011;6175;50.956;11.064;2023-07-20T11:33:46;1.83;;;1.33;;
12224;SDS011;6175;50.956;11.064;2023-07-20T11:36:13;1.52;;;1.42;;
12224;SDS011;6175;50.956;11.064;2023-07-20T11:38:41;1.98;;;1.88;;
12224;SDS011;6175;50.956;11.064;2023-07-20T11:41:09;1.50;;;1.40;;
12224;SDS011;6175;50.956;11.064;2023-07-20T11:43:37;1.55;;;1.40;;
12224;SDS011;6175;50.956;11.064;2023-07-20T11:46:06;1.60;;;1.50;;
12224;SDS011;6175;50.956;11.064;2023-07-20T11:48:33;1.73;;;1.50;;
12224;SDS011;6175;50.956;11.064;2023-07-20T11:51:01;1.50;;;1.40;;
12224;SDS011;6175;50.956;11.064;2023-07-20T11:53:28;1.60;;;1.50;;
12224;SDS011;6175;50.956;11.064;2023-07-20T11:55:55;2.28;;;1.30;;
12224;SDS011;6175;50.956;11.064;2023-07-20T11:58:22;1.40;;;1.30;;
12224;SDS011;6175;50.956;11.064;2023-07-20T12:00:50;1.45;;;1.35;;
12224;SDS011;6175;50.956;11.064;2023-07-20T12:03:18;3.47;;;1.50;;
12224;SDS011;6175;50.956;11.064;2023-07-20T12:05:46;1.45;;;1.33;;
12224;SDS011;6175;50.956;11.064;2023-07-20T12:08:15;1.45;;;1.35;;
12224;SDS011;6175;50.956;11.064;2023-07-20T12:10:42;2.35;;;1.60;;
12224;SDS011;6175;50.956;11.064;2023-07-20T12:13:09;1.40;;;1.30;;
12224;SDS011;6175;50.956;11.064;2023-07-20T12:15:37;1.27;;;1.17;;
12224;SDS011;6175;50.956;11.064;2023-07-20T12:18:05;1.55;;;1.45;;
12224;SDS011;6175;50.956;11.064;2023-07-20T12:20:34;1.70;;;1.45;;
12224;SDS011;6175;50.956;11.064;2023-07-20T12:23:02;2.35;;;1.30;;
12224;SDS011;6175;50.956;11.064;2023-07-20T12:25:36;1.70;;;1.60;;
12224;SDS011;6175;50.956;11.064;2023-07-20T12:28:05;1.60;;;1.50;;
12224;SDS011;6175;50.956;11.064;2023-07-20T12:30:32;2.55;;;2.22;;
12224;SDS011;6175;50.956;11.064;2023-07-20T12:32:59;1.73;;;1.63;;
12224;SDS011;6175;50.956;11.064;2023-07-20T12:35:27;2.28;;;1.55;;
12224;SDS011;6175;50.956;11.064;2023-07-20T12:37:56;1.70;;;1.60;;
12224;SDS011;6175;50.956;11.064;2023-07-20T12:40:23;1.80;;;1.70;;
12224;SDS011;6175;50.956;11.064;2023-07-20T12:42:51;1.70;;;1.60;;
12224;SDS011;6175;50.956;11.064;2023-07-20T12:45:18;1.73;;;1.60;;
12224;SDS011;6175;50.956;11.064;2023-07-20T12:47:45;1.58;;;1.48;;
12224;SDS011;6175;50.956;11.064;2023-07-20T12:50:13;1.42;;;1.33;;
12224;SDS011;6175;50.956;11.064;2023-07-20T12:52:40;1.42;;;1.33;;
12224;SDS011;6175;50.956;11.064;2023-07-20T12:55:09;2.50;;;1.40;;
12224;SDS011;6175;50.956;11.064;2023-07-20T12:57:37;1.80;;;1.60;;
12224;SDS011;6175;50.956;11.064;2023-07-20T13:00:05;1.73;;;1.50;;
12224;SDS011;6175;50.956;11.064;2023-07-20T13:02:34;1.50;;;1.40;;
12224;SDS011;6175;50.956;11.064;2023-07-20T13:05:02;1.63;;;1.52;;
12224;SDS011;6175;50.956;11.064;2023-07-20T13:07:29;1.60;;;1.50;;
12224;SDS011;6175;50.956;11.064;2023-07-20T13:09:58;1.75;;;1.50;;
12224;SDS011;6175;50.956;11.064;2023-07-20T13:12:27;1.45;;;1.35;;
12224;SDS011;6175;50.956;11.064;2023-07-20T13:14:54;1.50;;;1.40;;
12224;SDS011;6175;50.956;11.064;2023-07-20T13:17:22;1.55;;;1.45;;
12224;SDS011;6175;50.956;11.064;2023-07-20T13:19:49;1.52;;;1.42;;
12224;SDS011;6175;50.956;11.064;2023-07-20T13:22:16;2.17;;;1.67;;
12224;SDS011;6175;50.956;11.064;2023-07-20T13:24:44;1.70;;;1.60;;
12224;SDS011;6175;50.956;11.064;2023-07-20T13:27:14;1.63;;;1.50;;
12224;SDS011;6175;50.956;11.064;2023-07-20T13:29:42;1.40;;;1.30;;
12224;SDS011;6175;50.956;11.064;2023-07-20T13:32:09;1.45;;;1.35;;
12224;SDS011;6175;50.956;11.064;2023-07-20T13:34:37;1.30;;;1.20;;
12224;SDS011;6175;50.956;11.064;2023-07-20T13:37:04;1.20;;;1.20;;
12224;SDS011;6175;50.956;11.064;2023-07-20T13:39:31;1.30;;;1.30;;
12224;SDS011;6175;50.956;11.064;2023-07-20T13:41:58;1.60;;;1.50;;
12224;SDS011;6175;50.956;11.064;2023-07-20T13:44:29;1.70;;;1.60;;
12224;SDS011;6175;50.956;11.064;2023-07-20T13:46:57;1.80;;;1.70;;
12224;SDS011;6175;50.956;11.064;2023-07-20T13:49:24;1.15;;;1.13;;
12224;SDS011;6175;50.956;11.064;2023-07-20T13:51:52;1.60;;;1.50;;
12224;SDS011;6175;50.956;11.064;2023-07-20T13:54:19;1.70;;;1.60;;
12224;SDS011;6175;50.956;11.064;2023-07-20T13:56:46;1.58;;;1.48;;
12224;SDS011;6175;50.956;11.064;2023-07-20T13:59:13;1.50;;;1.40;;
12224;SDS011;6175;50.956;11.064;2023-07-20T14:01:40;1.67;;;1.50;;
12224;SDS011;6175;50.956;11.064;2023-07-20T14:04:09;2.03;;;1.40;;
12224;SDS011;6175;50.956;11.064;2023-07-20T14:06:36;1.58;;;1.40;;
12224;SDS011;6175;50.956;11.064;2023-07-20T14:09:03;1.60;;;1.50;;
12224;SDS011;6175;50.956;11.064;2023-07-20T14:11:31;1.67;;;1.40;;
12224;SDS011;6175;50.956;11.064;2023-07-20T14:13:58;2.28;;;1.60;;
12224;SDS011;6175;50.956;11.064;2023-07-20T14:16:25;2.17;;;1.48;;
12224;SDS011;6175;50.956;11.064;2023-07-20T14:18:53;2.10;;;1.70;;
12224;SDS011;6175;50.956;11.064;2023-07-20T14:21:21;1.77;;;1.67;;
12224;SDS011;6175;50.956;11.064;2023-07-20T14:23:50;1.70;;;1.60;;
12224;SDS011;6175;50.956;11.064;2023-07-20T14:26:18;1.83;;;1.70;;
12224;SDS011;6175;50.956;11.064;2023-07-20T14:28:45;1.60;;;1.50;;
12224;SDS011;6175;50.956;11.064;2023-07-20T14:31:12;1.52;;;1.30;;
12224;SDS011;6175;50.956;11.064;2023-07-20T14:33:39;1.60;;;1.50;;
12224;SDS011;6175;50.956;11.064;2023-07-20T14:36:06;1.50;;;1.40;;
12224;SDS011;6175;50.956;11.064;2023-07-20T14:38:35;1.20;;;1.20;;
12224;SDS011;6175;50.956;11.064;2023-07-20T14:41:02;1.60;;;1.50;;
12224;SDS011;6175;50.956;11.064;2023-07-20T14:43:31;2.05;;;1.27;;
12224;SDS011;6175;50.956;11.064;2023-07-20T14:45:58;0.85;;;0.85;;
12224;SDS011;6175;50.956;11.064;2023-07-20T14:48:25;1.40;;;1.30;;
12224;SDS011;6175;50.956;11.064;2023-07-20T14:50:52;1.23;;;1.17;;
12224;SDS011;6175;50.956;11.064;2023-07-20T14:53:20;1.02;;;1.02;;
12224;SDS011;6175;50.956;11.064;2023-07-20T14:55:48;1.13;;;1.00;;